EBCILDZD

Guest
Details From EBCI - Brussels South - Charleroi
To LDZD - Zadar
Flight Number -
Tags Generated
Created
Modified
Stats Distance 586 nm / 1,085 km
Max Altitude 0 ft / 0 m
Waypoints 4
Social Downloads 3
Likes 0
Share VATSIM

Download

Looking for another format? Having issues loading an existing format? Contact us
Advertisement - Login to hide

Notes

Generated

Route

EBCI NYW04 BO LDZD

ID Type Via Altitude Latitude Longitude Leg Dist Tot Dist Heading (true) Name
O EBCI APT - 0 ft / 0 m 50.45539˚ 4.43664˚ - 0 nm - -
NYW04 FIX - 0 ft / 0 m 47.69781˚ 9.74359˚ 266 nm 266 nm 126° / 130° -
BO NDB - 0 ft / 0 m 44.16925˚ 15.26400˚ 313 nm 579 nm 131° / 135° BOKANJAC NDB
O LDZD APT - 0 ft / 0 m 44.07939˚ 15.34116˚ 6 nm 585 nm 148° / 148° -

Altitude Profile

Advertisement - Login to hide

Weather


0- 5 10 15 20 25 30 35+ Temperature / ° C

Clouds and Precipitation
Forecast for 2017-12-16 06:00 UTC. Updated 19 minutes ago

Ground ~20,000 ft ~40,000 ft Winds

EBCI

Details ICAO EBCI (CRL)
Name Brussels South - Charleroi
Region Belgium
Timezone Europe/Brussels (UTC+1.0)
Stats Elevation 614 ft / 187 m (AMSL)
Location 50.459947° 4.453125°
Runways 1
Magnetic Variation 1.134° E

METAR

EBCI 160120Z 31004KT 290V350 1500 BR SCT001 BKN002 02/02 Q1005 NOSIG

Decode

TAF

TAF AMD EBCI 160034Z 1600/1706 29005KT 6000 SCT004 BKN008 TEMPO 1600/1603 1200 BCFG BKN002 PROB40 TEMPO 1603/1620 3000 SHRASN BKN004 SCT014CB

Decode

Departure Runways

ID Width Length Bearing (true) Bearing (mag) Surface Threshold Offset Overrun Length
07 148 ft / 45 m 8,374 ft / 2,552 m 65.53° 64.40° Asphalt 1,476 ft / 450 m 0 ft / 0 m
25 148 ft / 45 m 8,374 ft / 2,552 m 245.55° 244.42° Asphalt 0 ft / 0 m 0 ft / 0 m

LDZD

Details ICAO LDZD (ZAD)
Name ZADAR
Region Croatia
Timezone Europe/Zagreb (UTC+1.0)
Stats Elevation 289 ft / 88 m (AMSL)
Location 44.097225° 15.347978°
Runways 2
Magnetic Variation 3.702° E

METAR

LDZD 160130Z 31012KT 270V020 9999 -RA FEW013 BKN040 09/09 Q0997

Decode

TAF

TAF LDZD 152325Z 1600/1700 16006KT 9999 SCT030 BKN050 TX10/1600Z TN04/1622Z TEMPO 1600/1609 RA PROB30 TEMPO 1600/1603 34015G25KT TSRA FEW020CB BKN025 PROB30 TEMPO 1614/1616 SHRA FEW030TCU BKN040 BECMG 1619/1621 03015G25KT

Decode

Destination Runways

ID Width Length Bearing (true) Bearing (mag) Surface Threshold Offset Overrun Length
04 147 ft / 45 m 6,519 ft / 1,987 m 41.52° 37.82° Asphalt 0 ft / 0 m 0 ft / 0 m
14 147 ft / 45 m 8,159 ft / 2,487 m 135.79° 132.09° Asphalt 0 ft / 0 m 0 ft / 0 m
22 147 ft / 45 m 6,519 ft / 1,987 m 221.53° 217.83° Asphalt 0 ft / 0 m 0 ft / 0 m
32 147 ft / 45 m 8,159 ft / 2,487 m 315.81° 312.11° Asphalt 0 ft / 0 m 0 ft / 0 m

Approach Navaids

Runway Type Ident Frequency Range Bearing (true) Bearing (mag) Slope Elevation
14 Localiser IZD 110.10 MHz 25 nm / 46 km 135.69° 131.99° - 246 ft / 75 m (AMSL)
14 Glidescope IZD 110.10 MHz 25 nm / 46 km 135.69° 131.99° 3.00° 236 ft / 72 m (AMSL)

Popular Alternatives